sensor_id;sensor_type;location;lat;lon;timestamp;noise_LAeq;noise_LA_min;noise_LA_max;noise_LA01;noise_LA95
76338;Laerm;20358;50.272;19.026;2024-02-15T00:02:25;45.05;36.74;58.92;;
76338;Laerm;20358;50.272;19.026;2024-02-15T00:05:34;43.14;36.24;59.71;;
76338;Laerm;20358;50.272;19.026;2024-02-15T00:08:41;40.76;35.52;56.69;;
76338;Laerm;20358;50.272;19.026;2024-02-15T00:11:49;41.97;36.40;61.47;;
76338;Laerm;20358;50.272;19.026;2024-02-15T00:15:00;42.92;36.33;56.21;;
76338;Laerm;20358;50.272;19.026;2024-02-15T00:18:09;37.61;35.14;42.44;;
76338;Laerm;20358;50.272;19.026;2024-02-15T00:21:16;41.17;35.26;61.02;;
76338;Laerm;20358;50.272;19.026;2024-02-15T00:24:24;41.64;35.24;60.73;;
76338;Laerm;20358;50.272;19.026;2024-02-15T00:27:31;42.19;35.70;55.72;;
76338;Laerm;20358;50.272;19.026;2024-02-15T00:30:42;42.24;34.36;60.53;;
76338;Laerm;20358;50.272;19.026;2024-02-15T00:33:49;42.92;35.89;61.68;;
76338;Laerm;20358;50.272;19.026;2024-02-15T00:36:58;40.53;35.54;55.78;;
76338;Laerm;20358;50.272;19.026;2024-02-15T00:40:07;40.81;35.46;57.27;;
76338;Laerm;20358;50.272;19.026;2024-02-15T00:43:15;45.88;35.19;60.20;;
76338;Laerm;20358;50.272;19.026;2024-02-15T00:46:25;40.27;34.48;56.08;;
76338;Laerm;20358;50.272;19.026;2024-02-15T00:49:34;41.90;34.82;60.00;;
76338;Laerm;20358;50.272;19.026;2024-02-15T00:52:41;43.38;35.80;58.12;;
76338;Laerm;20358;50.272;19.026;2024-02-15T00:55:49;39.04;34.89;48.13;;
76338;Laerm;20358;50.272;19.026;2024-02-15T00:58:56;40.89;35.01;52.63;;
76338;Laerm;20358;50.272;19.026;2024-02-15T01:02:08;39.55;34.70;50.20;;
76338;Laerm;20358;50.272;19.026;2024-02-15T01:05:16;39.21;35.13;54.71;;
76338;Laerm;20358;50.272;19.026;2024-02-15T01:08:24;41.15;35.15;56.70;;
76338;Laerm;20358;50.272;19.026;2024-02-15T01:11:31;37.66;34.27;49.31;;
76338;Laerm;20358;50.272;19.026;2024-02-15T01:14:39;40.33;35.20;54.04;;
76338;Laerm;20358;50.272;19.026;2024-02-15T01:17:54;39.72;34.57;56.37;;
76338;Laerm;20358;50.272;19.026;2024-02-15T01:21:16;42.89;34.61;58.74;;
76338;Laerm;20358;50.272;19.026;2024-02-15T01:24:31;42.34;34.97;61.26;;
76338;Laerm;20358;50.272;19.026;2024-02-15T01:28:02;40.68;35.03;53.46;;
76338;Laerm;20358;50.272;19.026;2024-02-15T01:31:15;39.63;34.64;53.74;;
76338;Laerm;20358;50.272;19.026;2024-02-15T01:35:05;41.54;34.69;59.11;;
76338;Laerm;20358;50.272;19.026;2024-02-15T01:38:28;39.14;34.58;52.73;;
76338;Laerm;20358;50.272;19.026;2024-02-15T01:42:08;39.26;34.43;55.69;;
76338;Laerm;20358;50.272;19.026;2024-02-15T01:45:46;42.25;35.30;57.06;;
76338;Laerm;20358;50.272;19.026;2024-02-15T01:49:23;39.58;34.30;52.98;;
76338;Laerm;20358;50.272;19.026;2024-02-15T01:53:04;43.76;34.85;61.90;;
76338;Laerm;20358;50.272;19.026;2024-02-15T01:56:35;42.43;35.08;58.36;;
76338;Laerm;20358;50.272;19.026;2024-02-15T01:59:50;39.98;34.54;51.22;;
76338;Laerm;20358;50.272;19.026;2024-02-15T02:03:13;36.05;34.21;38.85;;
76338;Laerm;20358;50.272;19.026;2024-02-15T02:06:21;37.97;34.09;56.44;;
76338;Laerm;20358;50.272;19.026;2024-02-15T02:09:32;41.00;34.51;58.56;;
76338;Laerm;20358;50.272;19.026;2024-02-15T02:12:40;39.93;35.06;59.89;;
76338;Laerm;20358;50.272;19.026;2024-02-15T02:15:49;39.85;34.21;51.96;;
76338;Laerm;20358;50.272;19.026;2024-02-15T02:19:00;38.22;34.24;52.02;;
76338;Laerm;20358;50.272;19.026;2024-02-15T02:22:30;38.63;34.13;52.08;;
76338;Laerm;20358;50.272;19.026;2024-02-15T02:26:03;41.80;34.68;60.40;;
76338;Laerm;20358;50.272;19.026;2024-02-15T02:29:27;39.67;34.98;58.36;;
76338;Laerm;20358;50.272;19.026;2024-02-15T02:32:45;44.38;34.81;61.01;;
76338;Laerm;20358;50.272;19.026;2024-02-15T02:35:57;39.99;34.96;56.25;;
76338;Laerm;20358;50.272;19.026;2024-02-15T02:39:05;43.15;35.12;59.77;;
76338;Laerm;20358;50.272;19.026;2024-02-15T02:42:15;39.36;34.62;55.30;;
76338;Laerm;20358;50.272;19.026;2024-02-15T02:45:23;38.90;34.80;60.17;;
76338;Laerm;20358;50.272;19.026;2024-02-15T02:48:31;39.96;34.40;52.41;;
76338;Laerm;20358;50.272;19.026;2024-02-15T02:51:38;37.75;34.16;53.49;;
76338;Laerm;20358;50.272;19.026;2024-02-15T02:54:46;41.49;34.82;55.54;;
76338;Laerm;20358;50.272;19.026;2024-02-15T02:57:56;40.48;34.55;59.93;;
76338;Laerm;20358;50.272;19.026;2024-02-15T03:01:04;38.23;33.75;55.38;;
76338;Laerm;20358;50.272;19.026;2024-02-15T03:04:12;42.43;34.67;57.21;;
76338;Laerm;20358;50.272;19.026;2024-02-15T03:07:21;43.63;35.46;59.77;;
76338;Laerm;20358;50.272;19.026;2024-02-15T03:10:29;42.13;35.58;57.02;;
76338;Laerm;20358;50.272;19.026;2024-02-15T03:13:40;41.93;35.77;55.33;;
76338;Laerm;20358;50.272;19.026;2024-02-15T03:16:48;39.59;34.26;59.49;;
76338;Laerm;20358;50.272;19.026;2024-02-15T03:19:56;47.82;35.09;65.72;;
76338;Laerm;20358;50.272;19.026;2024-02-15T03:23:04;43.40;35.27;56.37;;
76338;Laerm;20358;50.272;19.026;2024-02-15T03:26:13;43.22;35.50;56.60;;
76338;Laerm;20358;50.272;19.026;2024-02-15T03:29:22;44.07;34.92;55.67;;
76338;Laerm;20358;50.272;19.026;2024-02-15T03:32:30;44.71;35.32;56.14;;
76338;Laerm;20358;50.272;19.026;2024-02-15T03:35:38;40.10;35.58;52.13;;
76338;Laerm;20358;50.272;19.026;2024-02-15T03:38:46;43.93;35.56;58.76;;
76338;Laerm;20358;50.272;19.026;2024-02-15T03:41:53;45.06;35.87;58.09;;
76338;Laerm;20358;50.272;19.026;2024-02-15T03:45:07;47.28;37.03;62.43;;
76338;Laerm;20358;50.272;19.026;2024-02-15T03:48:15;43.13;36.39;56.99;;
76338;Laerm;20358;50.272;19.026;2024-02-15T03:51:23;44.80;36.33;64.06;;
76338;Laerm;20358;50.272;19.026;2024-02-15T03:54:30;48.23;36.18;60.93;;
76338;Laerm;20358;50.272;19.026;2024-02-15T03:57:40;47.24;36.54;63.09;;
76338;Laerm;20358;50.272;19.026;2024-02-15T04:00:51;45.35;36.17;59.06;;
76338;Laerm;20358;50.272;19.026;2024-02-15T04:04:04;46.18;36.41;59.23;;
76338;Laerm;20358;50.272;19.026;2024-02-15T04:07:16;45.30;35.68;61.82;;
76338;Laerm;20358;50.272;19.026;2024-02-15T04:10:45;46.03;36.82;58.99;;
76338;Laerm;20358;50.272;19.026;2024-02-15T04:14:13;47.06;37.41;58.32;;
76338;Laerm;20358;50.272;19.026;2024-02-15T04:17:42;47.62;37.31;61.06;;
76338;Laerm;20358;50.272;19.026;2024-02-15T04:21:16;45.69;36.93;59.30;;
76338;Laerm;20358;50.272;19.026;2024-02-15T04:24:24;47.92;37.62;60.51;;
76338;Laerm;20358;50.272;19.026;2024-02-15T04:27:32;49.41;37.63;61.51;;
76338;Laerm;20358;50.272;19.026;2024-02-15T04:30:40;48.54;37.96;62.18;;
76338;Laerm;20358;50.272;19.026;2024-02-15T04:33:56;48.14;38.67;57.84;;
76338;Laerm;20358;50.272;19.026;2024-02-15T04:37:33;49.83;38.41;59.99;;
76338;Laerm;20358;50.272;19.026;2024-02-15T04:41:00;50.20;38.73;62.87;;
76338;Laerm;20358;50.272;19.026;2024-02-15T04:44:35;50.02;39.43;60.19;;
76338;Laerm;20358;50.272;19.026;2024-02-15T04:48:18;50.07;39.61;59.50;;
76338;Laerm;20358;50.272;19.026;2024-02-15T04:51:44;52.06;41.60;66.32;;
76338;Laerm;20358;50.272;19.026;2024-02-15T04:55:11;49.59;38.81;62.45;;
76338;Laerm;20358;50.272;19.026;2024-02-15T04:58:32;50.12;40.06;68.24;;
76338;Laerm;20358;50.272;19.026;2024-02-15T05:01:59;48.48;39.05;59.67;;
76338;Laerm;20358;50.272;19.026;2024-02-15T05:05:13;52.11;40.53;67.50;;
76338;Laerm;20358;50.272;19.026;2024-02-15T05:08:30;52.30;40.99;67.42;;
76338;Laerm;20358;50.272;19.026;2024-02-15T05:11:52;49.48;40.38;59.93;;
76338;Laerm;20358;50.272;19.026;2024-02-15T05:15:05;50.41;40.00;59.50;;
76338;Laerm;20358;50.272;19.026;2024-02-15T05:18:17;50.13;39.70;57.78;;
76338;Laerm;20358;50.272;19.026;2024-02-15T05:21:34;51.20;42.39;62.36;;
76338;Laerm;20358;50.272;19.026;2024-02-15T05:24:45;50.60;42.49;59.56;;
76338;Laerm;20358;50.272;19.026;2024-02-15T05:27:56;55.38;44.71;79.84;;
76338;Laerm;20358;50.272;19.026;2024-02-15T05:31:12;50.00;39.22;61.48;;
76338;Laerm;20358;50.272;19.026;2024-02-15T05:34:25;50.50;42.06;58.77;;
76338;Laerm;20358;50.272;19.026;2024-02-15T05:37:34;50.89;41.08;64.28;;
76338;Laerm;20358;50.272;19.026;2024-02-15T05:40:49;51.88;43.30;61.25;;
76338;Laerm;20358;50.272;19.026;2024-02-15T05:44:06;52.52;42.81;67.14;;
76338;Laerm;20358;50.272;19.026;2024-02-15T05:47:21;50.37;39.66;66.54;;
76338;Laerm;20358;50.272;19.026;2024-02-15T05:50:29;53.90;46.34;66.17;;
76338;Laerm;20358;50.272;19.026;2024-02-15T05:53:36;51.93;41.07;63.30;;
76338;Laerm;20358;50.272;19.026;2024-02-15T05:56:47;52.25;42.19;64.49;;
76338;Laerm;20358;50.272;19.026;2024-02-15T05:59:58;52.88;42.01;60.97;;
76338;Laerm;20358;50.272;19.026;2024-02-15T06:03:19;52.69;44.42;66.22;;
76338;Laerm;20358;50.272;19.026;2024-02-15T06:06:31;52.43;44.15;63.63;;
76338;Laerm;20358;50.272;19.026;2024-02-15T06:09:38;53.01;43.03;66.76;;
76338;Laerm;20358;50.272;19.026;2024-02-15T06:12:48;53.21;42.94;62.17;;
76338;Laerm;20358;50.272;19.026;2024-02-15T06:15:56;52.48;44.75;66.41;;
76338;Laerm;20358;50.272;19.026;2024-02-15T06:19:03;52.68;42.52;66.00;;
76338;Laerm;20358;50.272;19.026;2024-02-15T06:22:11;51.90;44.31;62.02;;
76338;Laerm;20358;50.272;19.026;2024-02-15T06:25:19;52.69;43.94;61.32;;
76338;Laerm;20358;50.272;19.026;2024-02-15T06:28:32;52.66;45.63;61.71;;
76338;Laerm;20358;50.272;19.026;2024-02-15T06:31:52;52.24;44.89;64.28;;
76338;Laerm;20358;50.272;19.026;2024-02-15T06:35:20;52.66;43.74;65.64;;
76338;Laerm;20358;50.272;19.026;2024-02-15T06:38:49;54.43;45.59;72.29;;
76338;Laerm;20358;50.272;19.026;2024-02-15T06:42:09;52.34;43.65;65.85;;
76338;Laerm;20358;50.272;19.026;2024-02-15T06:45:22;53.26;45.10;67.59;;
76338;Laerm;20358;50.272;19.026;2024-02-15T06:48:30;52.72;43.25;68.71;;
76338;Laerm;20358;50.272;19.026;2024-02-15T06:51:38;54.40;43.90;68.88;;
76338;Laerm;20358;50.272;19.026;2024-02-15T06:54:47;53.43;46.15;64.95;;
76338;Laerm;20358;50.272;19.026;2024-02-15T06:57:55;54.19;45.71;63.50;;
76338;Laerm;20358;50.272;19.026;2024-02-15T07:01:05;52.48;43.43;65.08;;
76338;Laerm;20358;50.272;19.026;2024-02-15T07:04:13;53.28;45.08;66.72;;
76338;Laerm;20358;50.272;19.026;2024-02-15T07:07:21;52.39;43.04;68.56;;
76338;Laerm;20358;50.272;19.026;2024-02-15T07:10:33;52.07;42.33;64.26;;
76338;Laerm;20358;50.272;19.026;2024-02-15T07:13:41;52.59;44.57;63.15;;
76338;Laerm;20358;50.272;19.026;2024-02-15T07:16:51;53.30;44.07;67.63;;
76338;Laerm;20358;50.272;19.026;2024-02-15T07:20:00;51.27;42.07;62.80;;
76338;Laerm;20358;50.272;19.026;2024-02-15T07:23:08;51.96;43.62;61.06;;
76338;Laerm;20358;50.272;19.026;2024-02-15T07:26:16;51.89;45.37;60.36;;
76338;Laerm;20358;50.272;19.026;2024-02-15T07:29:24;52.23;44.54;65.04;;
76338;Laerm;20358;50.272;19.026;2024-02-15T07:32:34;54.33;44.23;67.25;;
76338;Laerm;20358;50.272;19.026;2024-02-15T07:35:42;54.37;44.66;66.62;;
76338;Laerm;20358;50.272;19.026;2024-02-15T07:38:50;54.18;43.19;68.45;;
76338;Laerm;20358;50.272;19.026;2024-02-15T07:42:00;52.81;42.26;66.33;;
76338;Laerm;20358;50.272;19.026;2024-02-15T07:45:11;53.18;44.30;65.67;;
76338;Laerm;20358;50.272;19.026;2024-02-15T07:48:22;53.00;45.70;61.47;;
76338;Laerm;20358;50.272;19.026;2024-02-15T07:51:33;53.57;47.51;65.17;;
76338;Laerm;20358;50.272;19.026;2024-02-15T07:54:47;54.27;47.30;66.34;;
76338;Laerm;20358;50.272;19.026;2024-02-15T07:57:56;52.42;41.96;60.59;;
76338;Laerm;20358;50.272;19.026;2024-02-15T08:01:04;53.65;46.21;72.23;;
76338;Laerm;20358;50.272;19.026;2024-02-15T08:04:15;51.61;42.49;62.54;;
76338;Laerm;20358;50.272;19.026;2024-02-15T08:07:23;52.14;44.04;64.48;;
76338;Laerm;20358;50.272;19.026;2024-02-15T08:10:35;52.02;44.74;60.78;;
76338;Laerm;20358;50.272;19.026;2024-02-15T08:13:44;52.45;44.51;61.86;;
76338;Laerm;20358;50.272;19.026;2024-02-15T08:16:53;53.26;45.39;61.55;;
76338;Laerm;20358;50.272;19.026;2024-02-15T08:20:07;52.11;42.83;64.24;;
76338;Laerm;20358;50.272;19.026;2024-02-15T08:23:15;53.33;44.72;67.41;;
76338;Laerm;20358;50.272;19.026;2024-02-15T08:26:24;52.33;42.21;60.86;;
76338;Laerm;20358;50.272;19.026;2024-02-15T08:29:31;52.05;42.99;66.53;;
76338;Laerm;20358;50.272;19.026;2024-02-15T08:32:50;53.22;44.43;67.99;;
76338;Laerm;20358;50.272;19.026;2024-02-15T08:36:01;51.69;44.88;61.02;;
76338;Laerm;20358;50.272;19.026;2024-02-15T08:39:15;52.32;42.53;61.65;;
76338;Laerm;20358;50.272;19.026;2024-02-15T08:42:21;51.89;42.49;69.45;;
76338;Laerm;20358;50.272;19.026;2024-02-15T08:45:33;53.46;41.49;68.03;;
76338;Laerm;20358;50.272;19.026;2024-02-15T08:48:43;51.13;42.66;71.60;;
76338;Laerm;20358;50.272;19.026;2024-02-15T08:52:02;52.49;43.64;62.73;;
76338;Laerm;20358;50.272;19.026;2024-02-15T08:55:16;52.80;44.54;63.58;;
76338;Laerm;20358;50.272;19.026;2024-02-15T08:58:30;52.29;45.27;63.78;;
76338;Laerm;20358;50.272;19.026;2024-02-15T09:01:46;50.99;42.77;65.61;;
76338;Laerm;20358;50.272;19.026;2024-02-15T09:05:24;51.84;44.25;62.08;;
76338;Laerm;20358;50.272;19.026;2024-02-15T09:08:33;51.73;39.31;63.22;;
76338;Laerm;20358;50.272;19.026;2024-02-15T09:11:43;49.79;41.76;68.33;;
76338;Laerm;20358;50.272;19.026;2024-02-15T09:14:57;50.50;39.82;58.25;;
76338;Laerm;20358;50.272;19.026;2024-02-15T09:18:07;50.76;39.31;60.96;;
76338;Laerm;20358;50.272;19.026;2024-02-15T09:21:18;51.41;41.33;73.55;;
76338;Laerm;20358;50.272;19.026;2024-02-15T09:24:34;62.63;41.89;87.83;;
76338;Laerm;20358;50.272;19.026;2024-02-15T09:27:42;51.58;41.03;61.46;;
76338;Laerm;20358;50.272;19.026;2024-02-15T09:30:53;51.58;43.92;60.41;;
76338;Laerm;20358;50.272;19.026;2024-02-15T09:34:12;51.35;41.42;64.58;;
76338;Laerm;20358;50.272;19.026;2024-02-15T09:37:20;53.80;42.40;73.95;;
76338;Laerm;20358;50.272;19.026;2024-02-15T09:40:33;51.16;42.26;60.01;;
76338;Laerm;20358;50.272;19.026;2024-02-15T09:43:41;52.07;44.60;59.13;;
76338;Laerm;20358;50.272;19.026;2024-02-15T09:47:02;52.46;42.75;66.29;;
76338;Laerm;20358;50.272;19.026;2024-02-15T09:50:14;51.99;42.89;68.78;;
76338;Laerm;20358;50.272;19.026;2024-02-15T09:53:22;59.13;43.39;74.75;;
76338;Laerm;20358;50.272;19.026;2024-02-15T09:56:35;52.92;43.78;64.30;;
76338;Laerm;20358;50.272;19.026;2024-02-15T09:59:42;52.55;43.14;63.61;;
76338;Laerm;20358;50.272;19.026;2024-02-15T10:02:51;55.66;42.90;71.65;;
76338;Laerm;20358;50.272;19.026;2024-02-15T10:05:59;62.20;42.91;82.32;;
76338;Laerm;20358;50.272;19.026;2024-02-15T10:09:26;56.89;43.38;78.21;;
76338;Laerm;20358;50.272;19.026;2024-02-15T10:12:40;51.41;43.69;60.69;;
76338;Laerm;20358;50.272;19.026;2024-02-15T10:15:47;54.13;45.12;65.68;;
76338;Laerm;20358;50.272;19.026;2024-02-15T10:19:09;53.03;44.99;66.40;;
76338;Laerm;20358;50.272;19.026;2024-02-15T10:22:16;53.56;44.30;76.50;;
76338;Laerm;20358;50.272;19.026;2024-02-15T10:25:26;51.96;42.00;65.31;;
76338;Laerm;20358;50.272;19.026;2024-02-15T10:28:36;51.58;42.96;61.18;;
76338;Laerm;20358;50.272;19.026;2024-02-15T10:31:54;51.23;42.24;59.80;;
76338;Laerm;20358;50.272;19.026;2024-02-15T10:35:03;54.68;42.94;66.88;;
76338;Laerm;20358;50.272;19.026;2024-02-15T10:38:11;51.16;42.62;63.13;;
76338;Laerm;20358;50.272;19.026;2024-02-15T10:41:22;52.44;42.21;62.20;;
76338;Laerm;20358;50.272;19.026;2024-02-15T10:44:32;52.77;42.43;63.17;;
76338;Laerm;20358;50.272;19.026;2024-02-15T10:47:40;51.37;42.67;62.41;;
76338;Laerm;20358;50.272;19.026;2024-02-15T10:50:51;52.75;42.51;61.70;;
76338;Laerm;20358;50.272;19.026;2024-02-15T10:54:05;51.39;43.67;60.04;;
76338;Laerm;20358;50.272;19.026;2024-02-15T10:57:21;52.67;44.45;63.72;;
76338;Laerm;20358;50.272;19.026;2024-02-15T11:00:35;52.01;40.68;67.61;;
76338;Laerm;20358;50.272;19.026;2024-02-15T11:03:57;50.69;42.43;65.26;;
76338;Laerm;20358;50.272;19.026;2024-02-15T11:07:08;52.61;47.19;61.39;;
76338;Laerm;20358;50.272;19.026;2024-02-15T11:10:18;52.15;43.25;62.34;;
76338;Laerm;20358;50.272;19.026;2024-02-15T11:13:42;52.41;41.97;66.74;;
76338;Laerm;20358;50.272;19.026;2024-02-15T11:21:53;51.66;41.03;63.89;;
76338;Laerm;20358;50.272;19.026;2024-02-15T11:25:06;53.77;42.00;67.67;;
76338;Laerm;20358;50.272;19.026;2024-02-15T11:29:05;52.93;43.59;72.42;;
76338;Laerm;20358;50.272;19.026;2024-02-15T11:32:53;51.15;41.52;65.08;;
76338;Laerm;20358;50.272;19.026;2024-02-15T11:36:36;51.56;44.01;62.51;;
76338;Laerm;20358;50.272;19.026;2024-02-15T11:39:46;52.19;43.11;61.29;;
76338;Laerm;20358;50.272;19.026;2024-02-15T11:42:57;52.38;45.63;62.79;;
76338;Laerm;20358;50.272;19.026;2024-02-15T11:46:05;52.13;43.38;67.66;;
76338;Laerm;20358;50.272;19.026;2024-02-15T11:49:15;52.64;44.14;72.38;;
76338;Laerm;20358;50.272;19.026;2024-02-15T11:52:26;54.99;46.21;75.04;;
76338;Laerm;20358;50.272;19.026;2024-02-15T11:55:33;53.68;44.42;69.71;;
76338;Laerm;20358;50.272;19.026;2024-02-15T11:58:42;52.08;43.80;63.40;;
76338;Laerm;20358;50.272;19.026;2024-02-15T12:01:58;51.64;43.66;58.60;;
76338;Laerm;20358;50.272;19.026;2024-02-15T12:05:21;52.57;45.87;60.38;;
76338;Laerm;20358;50.272;19.026;2024-02-15T12:08:45;52.32;43.73;65.93;;
76338;Laerm;20358;50.272;19.026;2024-02-15T12:12:10;52.82;44.01;67.82;;
76338;Laerm;20358;50.272;19.026;2024-02-15T12:15:30;51.87;41.94;68.13;;
76338;Laerm;20358;50.272;19.026;2024-02-15T12:18:49;50.97;43.84;59.43;;
76338;Laerm;20358;50.272;19.026;2024-02-15T12:22:01;52.00;43.26;59.86;;
76338;Laerm;20358;50.272;19.026;2024-02-15T12:25:16;53.94;43.27;75.30;;
76338;Laerm;20358;50.272;19.026;2024-02-15T12:28:26;53.98;45.86;73.94;;
76338;Laerm;20358;50.272;19.026;2024-02-15T12:31:36;53.14;43.17;68.46;;
76338;Laerm;20358;50.272;19.026;2024-02-15T12:34:45;52.51;43.80;68.67;;
76338;Laerm;20358;50.272;19.026;2024-02-15T12:38:03;53.19;42.95;68.13;;
76338;Laerm;20358;50.272;19.026;2024-02-15T12:41:23;52.80;42.76;62.35;;
76338;Laerm;20358;50.272;19.026;2024-02-15T12:44:29;51.98;43.10;64.82;;
76338;Laerm;20358;50.272;19.026;2024-02-15T12:47:39;51.82;42.80;70.99;;
76338;Laerm;20358;50.272;19.026;2024-02-15T12:50:48;52.40;42.99;62.79;;
76338;Laerm;20358;50.272;19.026;2024-02-15T12:54:09;51.58;43.81;60.94;;
76338;Laerm;20358;50.272;19.026;2024-02-15T12:57:20;55.62;42.81;69.89;;
76338;Laerm;20358;50.272;19.026;2024-02-15T13:00:30;56.46;44.17;69.81;;
76338;Laerm;20358;50.272;19.026;2024-02-15T13:03:43;58.69;44.41;74.05;;
76338;Laerm;20358;50.272;19.026;2024-02-15T13:07:08;56.43;44.87;72.19;;
76338;Laerm;20358;50.272;19.026;2024-02-15T13:10:16;56.93;43.94;72.99;;
76338;Laerm;20358;50.272;19.026;2024-02-15T13:13:30;55.04;43.96;71.16;;
76338;Laerm;20358;50.272;19.026;2024-02-15T13:16:39;57.09;44.46;74.18;;
76338;Laerm;20358;50.272;19.026;2024-02-15T13:19:49;55.99;45.61;71.34;;
76338;Laerm;20358;50.272;19.026;2024-02-15T13:23:09;53.96;44.02;69.39;;
76338;Laerm;20358;50.272;19.026;2024-02-15T13:26:19;54.57;43.08;69.59;;
76338;Laerm;20358;50.272;19.026;2024-02-15T13:29:32;54.47;44.07;74.58;;
76338;Laerm;20358;50.272;19.026;2024-02-15T13:32:41;54.21;44.69;64.76;;
76338;Laerm;20358;50.272;19.026;2024-02-15T13:35:54;53.18;45.67;68.21;;
76338;Laerm;20358;50.272;19.026;2024-02-15T13:39:03;53.60;45.53;67.55;;
76338;Laerm;20358;50.272;19.026;2024-02-15T13:42:13;54.66;44.71;68.94;;
76338;Laerm;20358;50.272;19.026;2024-02-15T13:45:34;52.58;42.75;64.68;;
76338;Laerm;20358;50.272;19.026;2024-02-15T13:48:45;53.61;42.54;67.52;;
76338;Laerm;20358;50.272;19.026;2024-02-15T13:51:56;54.71;45.35;68.88;;
76338;Laerm;20358;50.272;19.026;2024-02-15T13:55:14;52.13;43.71;61.31;;
76338;Laerm;20358;50.272;19.026;2024-02-15T13:58:23;52.54;45.77;62.89;;
76338;Laerm;20358;50.272;19.026;2024-02-15T14:01:36;51.85;45.26;70.28;;
76338;Laerm;20358;50.272;19.026;2024-02-15T14:04:51;54.81;46.87;68.44;;
76338;Laerm;20358;50.272;19.026;2024-02-15T14:08:03;52.47;46.81;61.57;;
76338;Laerm;20358;50.272;19.026;2024-02-15T14:11:15;53.01;44.56;67.45;;
76338;Laerm;20358;50.272;19.026;2024-02-15T14:14:25;53.43;44.96;63.34;;
76338;Laerm;20358;50.272;19.026;2024-02-15T14:17:37;52.77;44.22;64.62;;
76338;Laerm;20358;50.272;19.026;2024-02-15T14:20:55;53.61;45.82;66.98;;
76338;Laerm;20358;50.272;19.026;2024-02-15T14:24:07;52.31;44.68;67.38;;
76338;Laerm;20358;50.272;19.026;2024-02-15T14:27:19;54.18;43.75;75.34;;
76338;Laerm;20358;50.272;19.026;2024-02-15T14:30:38;52.45;44.68;64.33;;
76338;Laerm;20358;50.272;19.026;2024-02-15T14:34:01;58.85;47.38;84.63;;
76338;Laerm;20358;50.272;19.026;2024-02-15T14:37:09;53.14;45.09;65.49;;
76338;Laerm;20358;50.272;19.026;2024-02-15T14:40:17;54.39;43.16;68.02;;
76338;Laerm;20358;50.272;19.026;2024-02-15T14:43:30;52.76;44.80;63.71;;
76338;Laerm;20358;50.272;19.026;2024-02-15T14:46:40;53.12;43.44;64.79;;
76338;Laerm;20358;50.272;19.026;2024-02-15T14:49:54;53.05;43.37;61.86;;
76338;Laerm;20358;50.272;19.026;2024-02-15T14:56:35;53.90;45.24;65.77;;
76338;Laerm;20358;50.272;19.026;2024-02-15T14:59:42;52.99;43.27;64.58;;
76338;Laerm;20358;50.272;19.026;2024-02-15T15:02:50;52.58;45.88;62.69;;
76338;Laerm;20358;50.272;19.026;2024-02-15T15:06:03;53.32;45.54;63.65;;
76338;Laerm;20358;50.272;19.026;2024-02-15T15:09:24;52.89;42.32;62.45;;
76338;Laerm;20358;50.272;19.026;2024-02-15T15:12:45;53.21;44.79;63.00;;
76338;Laerm;20358;50.272;19.026;2024-02-15T15:15:53;59.99;45.72;77.01;;
76338;Laerm;20358;50.272;19.026;2024-02-15T15:19:00;54.18;46.71;65.63;;
76338;Laerm;20358;50.272;19.026;2024-02-15T15:22:12;53.80;43.59;66.27;;
76338;Laerm;20358;50.272;19.026;2024-02-15T15:25:22;53.10;44.28;64.01;;
76338;Laerm;20358;50.272;19.026;2024-02-15T15:28:33;52.95;46.86;64.94;;
76338;Laerm;20358;50.272;19.026;2024-02-15T15:31:40;54.55;45.13;66.33;;
76338;Laerm;20358;50.272;19.026;2024-02-15T15:34:47;54.04;44.87;67.64;;
76338;Laerm;20358;50.272;19.026;2024-02-15T15:37:57;53.57;42.63;61.28;;
76338;Laerm;20358;50.272;19.026;2024-02-15T15:41:07;53.65;45.85;63.14;;
76338;Laerm;20358;50.272;19.026;2024-02-15T15:44:16;54.63;45.77;68.20;;
76338;Laerm;20358;50.272;19.026;2024-02-15T15:47:39;52.90;41.23;66.70;;
76338;Laerm;20358;50.272;19.026;2024-02-15T15:50:51;54.16;47.54;64.55;;
76338;Laerm;20358;50.272;19.026;2024-02-15T15:54:05;52.04;43.61;61.93;;
76338;Laerm;20358;50.272;19.026;2024-02-15T15:57:18;53.66;47.31;64.78;;
76338;Laerm;20358;50.272;19.026;2024-02-15T16:00:38;53.10;45.23;62.87;;
76338;Laerm;20358;50.272;19.026;2024-02-15T16:03:49;52.42;42.34;61.55;;
76338;Laerm;20358;50.272;19.026;2024-02-15T16:07:06;52.95;45.05;61.17;;
76338;Laerm;20358;50.272;19.026;2024-02-15T16:10:26;53.85;44.36;66.62;;
76338;Laerm;20358;50.272;19.026;2024-02-15T16:13:55;53.09;45.37;62.53;;
76338;Laerm;20358;50.272;19.026;2024-02-15T16:17:13;53.48;43.81;66.41;;
76338;Laerm;20358;50.272;19.026;2024-02-15T16:20:28;52.58;44.26;65.92;;
76338;Laerm;20358;50.272;19.026;2024-02-15T16:23:37;53.49;45.32;65.63;;
76338;Laerm;20358;50.272;19.026;2024-02-15T16:26:54;52.83;43.53;62.92;;
76338;Laerm;20358;50.272;19.026;2024-02-15T16:30:04;52.31;42.35;65.95;;
76338;Laerm;20358;50.272;19.026;2024-02-15T16:33:14;53.05;43.36;65.28;;
76338;Laerm;20358;50.272;19.026;2024-02-15T16:36:21;54.26;44.90;66.99;;
76338;Laerm;20358;50.272;19.026;2024-02-15T16:39:32;52.81;44.33;62.56;;
76338;Laerm;20358;50.272;19.026;2024-02-15T16:42:43;53.40;45.44;66.00;;
76338;Laerm;20358;50.272;19.026;2024-02-15T16:45:55;52.12;43.07;67.72;;
76338;Laerm;20358;50.272;19.026;2024-02-15T16:49:19;52.82;43.62;63.57;;
76338;Laerm;20358;50.272;19.026;2024-02-15T16:52:34;52.70;44.18;62.93;;
76338;Laerm;20358;50.272;19.026;2024-02-15T16:55:59;53.23;45.24;65.14;;
76338;Laerm;20358;50.272;19.026;2024-02-15T16:59:12;53.42;45.83;62.63;;
76338;Laerm;20358;50.272;19.026;2024-02-15T17:02:27;52.59;43.18;67.85;;
76338;Laerm;20358;50.272;19.026;2024-02-15T17:05:39;54.01;41.63;64.00;;
76338;Laerm;20358;50.272;19.026;2024-02-15T17:08:51;51.68;41.52;62.08;;
76338;Laerm;20358;50.272;19.026;2024-02-15T17:12:05;53.79;42.69;63.90;;
76338;Laerm;20358;50.272;19.026;2024-02-15T17:15:20;52.83;42.60;68.65;;
76338;Laerm;20358;50.272;19.026;2024-02-15T17:18:35;51.84;44.37;58.52;;
76338;Laerm;20358;50.272;19.026;2024-02-15T17:22:13;51.59;40.81;65.47;;
76338;Laerm;20358;50.272;19.026;2024-02-15T17:25:23;50.49;40.81;63.57;;
76338;Laerm;20358;50.272;19.026;2024-02-15T17:28:32;51.87;43.67;62.76;;
76338;Laerm;20358;50.272;19.026;2024-02-15T17:31:55;51.91;42.89;61.44;;
76338;Laerm;20358;50.272;19.026;2024-02-15T17:35:12;51.35;42.07;62.39;;
76338;Laerm;20358;50.272;19.026;2024-02-15T17:38:28;51.31;42.44;60.46;;
76338;Laerm;20358;50.272;19.026;2024-02-15T17:41:49;52.07;41.73;61.69;;
76338;Laerm;20358;50.272;19.026;2024-02-15T17:45:01;52.28;43.71;63.85;;
76338;Laerm;20358;50.272;19.026;2024-02-15T17:48:13;51.91;41.28;71.03;;
76338;Laerm;20358;50.272;19.026;2024-02-15T17:51:38;51.70;41.51;61.37;;
76338;Laerm;20358;50.272;19.026;2024-02-15T17:54:50;51.70;41.97;62.20;;
76338;Laerm;20358;50.272;19.026;2024-02-15T17:58:11;51.65;42.40;62.92;;